Almedia, Pennsylvania
Current Conditions -  °F | °C
As of 3:15 PM on Monday 24 Nov 2014 (Local Time) from KHZL Reporting Station
Broken Clouds Broken Clouds  
Wind Chill: 63°   Ceiling: 4400
Heat Index: 63°   Visibility: 10mi
Dew Point: 52°   Wind: 12mph
Humidity: 68%   Direction: 180°S
Pressure: 29.58"   Gusts: 22mph
Location:  41.0301°N, 76.4558°W
Report Text: KHZL 242015Z AUTO 18010G19KT 10SM SCT024 SCT035 BKN044 17/11 A2958 RMK AO2
Loading
Personal Weather Stations






























Interactive Weather Map New forecast layout! Learn more

10-Day Weather Forecast

Advertisements
Track Severe Weather on mobile